Terminal Aerodrome Forecast
Issued by NWS Green Bay, WI

Home | Current Version | Previous Version | Graphics & Text | Print | Product List | Glossary On
Versions: 1 2 3 4 5 6 7 8 9 10 11 12 13 14 15 16 17 18 19 20 21 22 23 24 25 26 27 28 29 30 31 32 33
000
FTUS43 KGRB 240520
TAFGRB
TAF
KGRB 240520Z 2406/2506 18004KT P6SM BKN090
     FM241500 18010G17KT P6SM BKN070
     FM242100 12010KT P6SM -SHRA SCT030 OVC050
      TEMPO 2422/2424 5SM -RA BR OVC025
     FM250000 11010KT 3SM RA BR OVC015
     FM250400 12010KT 3SM RA BR BKN008 OVC015 WS013/17035KT=

USA.gov is the U.S. government's official web portal to all federal, state and local government web resources and services.